sensor_id;sensor_type;location;lat;lon;timestamp;temperature;humidity
21149;DHT22;10732;51.472;6.466;2022-12-07T00:01:11;4.40;99.90
21149;DHT22;10732;51.472;6.466;2022-12-07T00:03:38;4.40;99.90
21149;DHT22;10732;51.472;6.466;2022-12-07T00:06:05;4.40;99.90
21149;DHT22;10732;51.472;6.466;2022-12-07T00:08:33;4.40;99.90
21149;DHT22;10732;51.472;6.466;2022-12-07T00:13:33;4.30;99.90
21149;DHT22;10732;51.472;6.466;2022-12-07T00:16:07;4.40;99.90
21149;DHT22;10732;51.472;6.466;2022-12-07T00:18:33;4.30;99.90
21149;DHT22;10732;51.472;6.466;2022-12-07T00:21:19;4.40;99.90
21149;DHT22;10732;51.472;6.466;2022-12-07T00:23:45;4.40;99.90
21149;DHT22;10732;51.472;6.466;2022-12-07T00:28:39;4.30;99.90
21149;DHT22;10732;51.472;6.466;2022-12-07T00:31:10;4.40;99.90
21149;DHT22;10732;51.472;6.466;2022-12-07T00:33:36;4.30;99.90
21149;DHT22;10732;51.472;6.466;2022-12-07T00:36:06;4.30;99.90
21149;DHT22;10732;51.472;6.466;2022-12-07T00:38:33;4.20;99.90
21149;DHT22;10732;51.472;6.466;2022-12-07T00:41:02;4.10;99.90
21149;DHT22;10732;51.472;6.466;2022-12-07T00:43:27;4.10;99.90
21149;DHT22;10732;51.472;6.466;2022-12-07T00:45:54;4.10;99.90
21149;DHT22;10732;51.472;6.466;2022-12-07T00:48:20;4.10;99.90
21149;DHT22;10732;51.472;6.466;2022-12-07T00:50:46;4.20;99.90
21149;DHT22;10732;51.472;6.466;2022-12-07T00:53:12;4.20;99.90
21149;DHT22;10732;51.472;6.466;2022-12-07T00:55:37;4.30;99.90
21149;DHT22;10732;51.472;6.466;2022-12-07T00:58:03;4.20;99.90
21149;DHT22;10732;51.472;6.466;2022-12-07T01:00:30;4.20;99.90
21149;DHT22;10732;51.472;6.466;2022-12-07T01:02:55;4.30;99.90
21149;DHT22;10732;51.472;6.466;2022-12-07T01:05:21;4.20;99.90
21149;DHT22;10732;51.472;6.466;2022-12-07T01:07:46;4.20;99.90
21149;DHT22;10732;51.472;6.466;2022-12-07T01:10:13;4.20;99.90
21149;DHT22;10732;51.472;6.466;2022-12-07T01:12:40;4.20;99.90
21149;DHT22;10732;51.472;6.466;2022-12-07T01:15:06;4.10;99.90
21149;DHT22;10732;51.472;6.466;2022-12-07T01:17:32;4.10;99.90
21149;DHT22;10732;51.472;6.466;2022-12-07T01:19:58;4.10;99.90
21149;DHT22;10732;51.472;6.466;2022-12-07T01:22:23;4.00;99.90
21149;DHT22;10732;51.472;6.466;2022-12-07T01:24:49;4.00;99.90
21149;DHT22;10732;51.472;6.466;2022-12-07T01:27:15;3.90;99.90
21149;DHT22;10732;51.472;6.466;2022-12-07T01:29:40;3.90;99.90
21149;DHT22;10732;51.472;6.466;2022-12-07T01:32:06;3.80;99.90
21149;DHT22;10732;51.472;6.466;2022-12-07T01:34:31;3.80;99.90
21149;DHT22;10732;51.472;6.466;2022-12-07T01:36:57;3.70;99.90
21149;DHT22;10732;51.472;6.466;2022-12-07T01:39:23;3.70;99.90
21149;DHT22;10732;51.472;6.466;2022-12-07T01:41:49;3.70;99.90
21149;DHT22;10732;51.472;6.466;2022-12-07T01:44:26;3.70;99.90
21149;DHT22;10732;51.472;6.466;2022-12-07T01:47:18;3.70;99.90
21149;DHT22;10732;51.472;6.466;2022-12-07T01:49:46;3.70;99.90
21149;DHT22;10732;51.472;6.466;2022-12-07T01:54:44;3.70;99.90
21149;DHT22;10732;51.472;6.466;2022-12-07T01:57:12;3.70;99.90
21149;DHT22;10732;51.472;6.466;2022-12-07T01:59:39;3.70;99.90
21149;DHT22;10732;51.472;6.466;2022-12-07T02:02:09;3.80;99.90
21149;DHT22;10732;51.472;6.466;2022-12-07T02:04:37;3.80;99.90
21149;DHT22;10732;51.472;6.466;2022-12-07T02:07:03;3.70;99.90
21149;DHT22;10732;51.472;6.466;2022-12-07T02:09:29;3.70;99.90
21149;DHT22;10732;51.472;6.466;2022-12-07T02:11:56;3.70;99.90
21149;DHT22;10732;51.472;6.466;2022-12-07T02:14:21;3.70;99.90
21149;DHT22;10732;51.472;6.466;2022-12-07T02:17:14;3.60;99.90
21149;DHT22;10732;51.472;6.466;2022-12-07T02:28:07;3.70;99.90
21149;DHT22;10732;51.472;6.466;2022-12-07T02:30:42;3.60;99.90
21149;DHT22;10732;51.472;6.466;2022-12-07T02:33:17;3.60;99.90
21149;DHT22;10732;51.472;6.466;2022-12-07T02:35:46;3.50;99.90
21149;DHT22;10732;51.472;6.466;2022-12-07T02:41:27;3.40;99.90
21149;DHT22;10732;51.472;6.466;2022-12-07T02:44:00;3.30;99.90
21149;DHT22;10732;51.472;6.466;2022-12-07T02:46:31;3.20;99.90
21149;DHT22;10732;51.472;6.466;2022-12-07T02:48:58;3.20;99.90
21149;DHT22;10732;51.472;6.466;2022-12-07T02:51:30;3.10;99.90
21149;DHT22;10732;51.472;6.466;2022-12-07T02:53:56;3.10;99.90
21149;DHT22;10732;51.472;6.466;2022-12-07T02:59:08;3.10;99.90
21149;DHT22;10732;51.472;6.466;2022-12-07T03:07:33;3.20;99.90
21149;DHT22;10732;51.472;6.466;2022-12-07T03:16:02;3.10;99.90
21149;DHT22;10732;51.472;6.466;2022-12-07T03:18:33;3.00;99.90
21149;DHT22;10732;51.472;6.466;2022-12-07T03:21:06;2.90;99.90
21149;DHT22;10732;51.472;6.466;2022-12-07T03:23:35;2.80;99.90
21149;DHT22;10732;51.472;6.466;2022-12-07T03:26:03;2.80;99.90
21149;DHT22;10732;51.472;6.466;2022-12-07T03:28:34;2.80;99.90
21149;DHT22;10732;51.472;6.466;2022-12-07T03:31:23;2.70;99.90
21149;DHT22;10732;51.472;6.466;2022-12-07T03:34:16;2.70;99.90
21149;DHT22;10732;51.472;6.466;2022-12-07T03:36:53;2.70;99.90
21149;DHT22;10732;51.472;6.466;2022-12-07T03:39:37;2.70;99.90
21149;DHT22;10732;51.472;6.466;2022-12-07T03:42:05;2.80;99.90
21149;DHT22;10732;51.472;6.466;2022-12-07T03:44:35;2.80;99.90
21149;DHT22;10732;51.472;6.466;2022-12-07T03:47:19;2.80;99.90
21149;DHT22;10732;51.472;6.466;2022-12-07T03:52:36;2.80;99.90
21149;DHT22;10732;51.472;6.466;2022-12-07T03:55:17;2.80;99.90
21149;DHT22;10732;51.472;6.466;2022-12-07T03:57:47;2.80;99.90
21149;DHT22;10732;51.472;6.466;2022-12-07T04:00:14;2.80;99.90
21149;DHT22;10732;51.472;6.466;2022-12-07T04:02:40;2.90;99.90
21149;DHT22;10732;51.472;6.466;2022-12-07T04:05:06;2.90;99.90
21149;DHT22;10732;51.472;6.466;2022-12-07T04:07:32;3.00;99.90
21149;DHT22;10732;51.472;6.466;2022-12-07T04:09:58;3.00;99.90
21149;DHT22;10732;51.472;6.466;2022-12-07T04:12:24;3.00;99.90
21149;DHT22;10732;51.472;6.466;2022-12-07T04:14:49;3.00;99.90
21149;DHT22;10732;51.472;6.466;2022-12-07T04:17:15;3.00;99.90
21149;DHT22;10732;51.472;6.466;2022-12-07T04:19:40;3.00;99.90
21149;DHT22;10732;51.472;6.466;2022-12-07T04:22:06;2.90;99.90
21149;DHT22;10732;51.472;6.466;2022-12-07T04:24:33;2.90;99.90
21149;DHT22;10732;51.472;6.466;2022-12-07T04:26:59;2.80;99.90
21149;DHT22;10732;51.472;6.466;2022-12-07T04:29:25;2.70;99.90
21149;DHT22;10732;51.472;6.466;2022-12-07T04:31:51;2.70;99.90
21149;DHT22;10732;51.472;6.466;2022-12-07T04:34:17;2.60;99.90
21149;DHT22;10732;51.472;6.466;2022-12-07T04:36:44;2.70;99.90
21149;DHT22;10732;51.472;6.466;2022-12-07T04:39:19;2.60;99.90
21149;DHT22;10732;51.472;6.466;2022-12-07T04:41:45;2.60;99.90
21149;DHT22;10732;51.472;6.466;2022-12-07T04:44:11;2.60;99.90
21149;DHT22;10732;51.472;6.466;2022-12-07T04:46:39;2.70;99.90
21149;DHT22;10732;51.472;6.466;2022-12-07T04:49:05;2.80;99.90
21149;DHT22;10732;51.472;6.466;2022-12-07T04:51:30;2.80;99.90
21149;DHT22;10732;51.472;6.466;2022-12-07T04:53:56;2.90;99.90
21149;DHT22;10732;51.472;6.466;2022-12-07T04:56:23;3.00;99.90
21149;DHT22;10732;51.472;6.466;2022-12-07T04:58:48;3.00;99.90
21149;DHT22;10732;51.472;6.466;2022-12-07T05:01:16;3.00;99.90
21149;DHT22;10732;51.472;6.466;2022-12-07T05:03:42;3.10;99.90
21149;DHT22;10732;51.472;6.466;2022-12-07T05:06:09;3.10;99.90
21149;DHT22;10732;51.472;6.466;2022-12-07T05:08:36;3.10;99.90
21149;DHT22;10732;51.472;6.466;2022-12-07T05:11:02;3.20;99.90
21149;DHT22;10732;51.472;6.466;2022-12-07T05:13:28;3.20;99.90
21149;DHT22;10732;51.472;6.466;2022-12-07T05:15:54;3.20;99.90
21149;DHT22;10732;51.472;6.466;2022-12-07T05:18:20;3.20;99.90
21149;DHT22;10732;51.472;6.466;2022-12-07T05:20:45;3.20;99.90
21149;DHT22;10732;51.472;6.466;2022-12-07T05:23:11;3.20;99.90
21149;DHT22;10732;51.472;6.466;2022-12-07T05:25:37;3.20;99.90
21149;DHT22;10732;51.472;6.466;2022-12-07T05:28:04;3.20;99.90
21149;DHT22;10732;51.472;6.466;2022-12-07T05:30:30;3.20;99.90
21149;DHT22;10732;51.472;6.466;2022-12-07T05:32:55;3.20;99.90
21149;DHT22;10732;51.472;6.466;2022-12-07T05:35:21;3.20;99.90
21149;DHT22;10732;51.472;6.466;2022-12-07T05:37:47;3.20;99.90
21149;DHT22;10732;51.472;6.466;2022-12-07T05:40:13;3.20;99.90
21149;DHT22;10732;51.472;6.466;2022-12-07T05:42:39;3.20;99.90
21149;DHT22;10732;51.472;6.466;2022-12-07T05:45:05;3.20;99.90
21149;DHT22;10732;51.472;6.466;2022-12-07T05:47:31;3.20;99.90
21149;DHT22;10732;51.472;6.466;2022-12-07T05:49:57;3.20;99.90
21149;DHT22;10732;51.472;6.466;2022-12-07T05:52:22;3.20;99.90
21149;DHT22;10732;51.472;6.466;2022-12-07T05:54:48;3.10;99.90
21149;DHT22;10732;51.472;6.466;2022-12-07T05:57:14;3.10;99.90
21149;DHT22;10732;51.472;6.466;2022-12-07T05:59:39;3.10;99.90
21149;DHT22;10732;51.472;6.466;2022-12-07T06:02:07;3.10;99.90
21149;DHT22;10732;51.472;6.466;2022-12-07T06:04:36;3.10;99.90
21149;DHT22;10732;51.472;6.466;2022-12-07T06:07:01;3.10;99.90
21149;DHT22;10732;51.472;6.466;2022-12-07T06:09:27;3.10;99.90
21149;DHT22;10732;51.472;6.466;2022-12-07T06:11:54;3.10;99.90
21149;DHT22;10732;51.472;6.466;2022-12-07T06:14:39;3.10;99.90
21149;DHT22;10732;51.472;6.466;2022-12-07T06:17:05;3.10;99.90
21149;DHT22;10732;51.472;6.466;2022-12-07T06:19:30;3.10;99.90
21149;DHT22;10732;51.472;6.466;2022-12-07T06:21:56;3.10;99.90
21149;DHT22;10732;51.472;6.466;2022-12-07T06:24:22;3.10;99.90
21149;DHT22;10732;51.472;6.466;2022-12-07T06:26:48;3.10;99.90
21149;DHT22;10732;51.472;6.466;2022-12-07T06:29:14;3.10;99.90
21149;DHT22;10732;51.472;6.466;2022-12-07T06:31:40;3.10;99.90
21149;DHT22;10732;51.472;6.466;2022-12-07T06:34:15;3.00;99.90
21149;DHT22;10732;51.472;6.466;2022-12-07T06:36:41;3.00;99.90
21149;DHT22;10732;51.472;6.466;2022-12-07T06:39:07;3.00;99.90
21149;DHT22;10732;51.472;6.466;2022-12-07T06:41:37;3.00;99.90
21149;DHT22;10732;51.472;6.466;2022-12-07T06:44:04;3.00;99.90
21149;DHT22;10732;51.472;6.466;2022-12-07T06:46:30;2.90;99.90
21149;DHT22;10732;51.472;6.466;2022-12-07T06:48:56;2.90;99.90
21149;DHT22;10732;51.472;6.466;2022-12-07T06:51:22;2.80;99.90
21149;DHT22;10732;51.472;6.466;2022-12-07T06:53:47;2.80;99.90
21149;DHT22;10732;51.472;6.466;2022-12-07T06:56:13;2.70;99.90
21149;DHT22;10732;51.472;6.466;2022-12-07T06:58:39;2.60;99.90
21149;DHT22;10732;51.472;6.466;2022-12-07T07:01:10;2.50;99.90
21149;DHT22;10732;51.472;6.466;2022-12-07T07:03:35;2.50;99.90
21149;DHT22;10732;51.472;6.466;2022-12-07T07:06:01;2.50;99.90
21149;DHT22;10732;51.472;6.466;2022-12-07T07:08:26;2.40;99.90
21149;DHT22;10732;51.472;6.466;2022-12-07T07:10:52;2.40;99.90
21149;DHT22;10732;51.472;6.466;2022-12-07T07:13:17;2.40;99.90
21149;DHT22;10732;51.472;6.466;2022-12-07T07:15:43;2.40;99.90
21149;DHT22;10732;51.472;6.466;2022-12-07T07:18:09;2.40;99.90
21149;DHT22;10732;51.472;6.466;2022-12-07T07:20:35;2.30;99.90
21149;DHT22;10732;51.472;6.466;2022-12-07T07:23:00;2.20;99.90
21149;DHT22;10732;51.472;6.466;2022-12-07T07:25:26;2.10;99.90
21149;DHT22;10732;51.472;6.466;2022-12-07T07:27:51;2.10;99.90
21149;DHT22;10732;51.472;6.466;2022-12-07T07:30:17;2.00;99.90
21149;DHT22;10732;51.472;6.466;2022-12-07T07:32:42;2.00;99.90
21149;DHT22;10732;51.472;6.466;2022-12-07T07:35:08;2.00;99.90
21149;DHT22;10732;51.472;6.466;2022-12-07T07:37:33;2.00;99.90
21149;DHT22;10732;51.472;6.466;2022-12-07T07:39:59;1.90;99.90
21149;DHT22;10732;51.472;6.466;2022-12-07T07:42:25;1.90;99.90
21149;DHT22;10732;51.472;6.466;2022-12-07T07:44:50;1.90;99.90
21149;DHT22;10732;51.472;6.466;2022-12-07T07:47:16;1.80;99.90
21149;DHT22;10732;51.472;6.466;2022-12-07T07:49:41;1.80;99.90
21149;DHT22;10732;51.472;6.466;2022-12-07T07:52:07;1.80;99.90
21149;DHT22;10732;51.472;6.466;2022-12-07T07:54:32;1.80;99.90
21149;DHT22;10732;51.472;6.466;2022-12-07T07:56:58;1.90;99.90
21149;DHT22;10732;51.472;6.466;2022-12-07T07:59:23;2.00;99.90
21149;DHT22;10732;51.472;6.466;2022-12-07T08:01:50;2.30;99.90
21149;DHT22;10732;51.472;6.466;2022-12-07T08:04:16;2.60;99.90
21149;DHT22;10732;51.472;6.466;2022-12-07T08:06:41;2.90;99.90
21149;DHT22;10732;51.472;6.466;2022-12-07T08:09:07;3.10;99.90
21149;DHT22;10732;51.472;6.466;2022-12-07T08:11:34;3.30;99.90
21149;DHT22;10732;51.472;6.466;2022-12-07T08:13:59;3.30;99.90
21149;DHT22;10732;51.472;6.466;2022-12-07T08:16:25;3.40;99.90
21149;DHT22;10732;51.472;6.466;2022-12-07T08:18:50;3.30;99.90
21149;DHT22;10732;51.472;6.466;2022-12-07T08:21:16;3.30;99.90
21149;DHT22;10732;51.472;6.466;2022-12-07T08:23:42;3.30;99.90
21149;DHT22;10732;51.472;6.466;2022-12-07T08:26:10;3.40;99.90
21149;DHT22;10732;51.472;6.466;2022-12-07T08:28:36;3.50;99.90
21149;DHT22;10732;51.472;6.466;2022-12-07T08:31:03;3.50;99.90
21149;DHT22;10732;51.472;6.466;2022-12-07T08:33:29;3.50;99.90
21149;DHT22;10732;51.472;6.466;2022-12-07T08:35:59;3.50;99.90
21149;DHT22;10732;51.472;6.466;2022-12-07T08:38:25;3.50;99.90
21149;DHT22;10732;51.472;6.466;2022-12-07T08:40:55;3.50;99.90
21149;DHT22;10732;51.472;6.466;2022-12-07T08:43:21;3.60;99.90
21149;DHT22;10732;51.472;6.466;2022-12-07T08:45:51;3.60;99.90
21149;DHT22;10732;51.472;6.466;2022-12-07T08:48:17;3.70;99.90
21149;DHT22;10732;51.472;6.466;2022-12-07T08:50:47;3.70;99.90
21149;DHT22;10732;51.472;6.466;2022-12-07T08:53:13;3.70;99.90
21149;DHT22;10732;51.472;6.466;2022-12-07T08:55:39;3.80;99.90
21149;DHT22;10732;51.472;6.466;2022-12-07T08:58:05;3.90;99.90
21149;DHT22;10732;51.472;6.466;2022-12-07T09:00:30;4.20;99.90
21149;DHT22;10732;51.472;6.466;2022-12-07T09:02:56;4.60;99.90
21149;DHT22;10732;51.472;6.466;2022-12-07T09:05:21;5.60;99.90
21149;DHT22;10732;51.472;6.466;2022-12-07T09:07:51;5.80;99.90
21149;DHT22;10732;51.472;6.466;2022-12-07T09:10:20;6.30;99.90
21149;DHT22;10732;51.472;6.466;2022-12-07T09:12:45;6.10;99.90
21149;DHT22;10732;51.472;6.466;2022-12-07T09:15:11;5.50;99.90
21149;DHT22;10732;51.472;6.466;2022-12-07T09:17:36;5.10;99.90
21149;DHT22;10732;51.472;6.466;2022-12-07T09:20:04;5.20;99.90
21149;DHT22;10732;51.472;6.466;2022-12-07T09:22:31;5.70;99.90
21149;DHT22;10732;51.472;6.466;2022-12-07T09:24:58;6.20;99.90
21149;DHT22;10732;51.472;6.466;2022-12-07T09:27:24;6.70;99.90
21149;DHT22;10732;51.472;6.466;2022-12-07T09:29:52;7.90;99.90
21149;DHT22;10732;51.472;6.466;2022-12-07T09:32:18;8.10;99.90
21149;DHT22;10732;51.472;6.466;2022-12-07T09:34:44;7.80;99.90
21149;DHT22;10732;51.472;6.466;2022-12-07T09:37:09;7.60;99.90
21149;DHT22;10732;51.472;6.466;2022-12-07T09:39:37;7.30;99.90
21149;DHT22;10732;51.472;6.466;2022-12-07T09:42:04;7.90;99.90
21149;DHT22;10732;51.472;6.466;2022-12-07T09:44:31;8.70;99.90
21149;DHT22;10732;51.472;6.466;2022-12-07T09:46:57;8.80;1.00
21149;DHT22;10732;51.472;6.466;2022-12-07T09:49:24;8.80;31.80
21149;DHT22;10732;51.472;6.466;2022-12-07T09:54:36;9.10;1.00
21149;DHT22;10732;51.472;6.466;2022-12-07T09:57:04;8.90;1.00
21149;DHT22;10732;51.472;6.466;2022-12-07T09:59:30;9.10;1.00
21149;DHT22;10732;51.472;6.466;2022-12-07T10:01:55;9.20;1.00
21149;DHT22;10732;51.472;6.466;2022-12-07T10:04:23;9.50;1.00
21149;DHT22;10732;51.472;6.466;2022-12-07T10:06:50;9.50;1.00
21149;DHT22;10732;51.472;6.466;2022-12-07T10:09:19;9.50;1.00
21149;DHT22;10732;51.472;6.466;2022-12-07T10:11:59;9.80;1.00
21149;DHT22;10732;51.472;6.466;2022-12-07T10:14:28;10.00;1.00
21149;DHT22;10732;51.472;6.466;2022-12-07T10:16:54;10.00;1.00
21149;DHT22;10732;51.472;6.466;2022-12-07T10:19:31;10.20;1.00
21149;DHT22;10732;51.472;6.466;2022-12-07T10:22:10;10.60;99.90
21149;DHT22;10732;51.472;6.466;2022-12-07T10:24:37;10.60;1.00
21149;DHT22;10732;51.472;6.466;2022-12-07T10:27:05;10.50;1.00
21149;DHT22;10732;51.472;6.466;2022-12-07T10:29:48;10.90;99.90
21149;DHT22;10732;51.472;6.466;2022-12-07T10:34:40;11.20;99.90
21149;DHT22;10732;51.472;6.466;2022-12-07T10:37:18;10.30;1.00
21149;DHT22;10732;51.472;6.466;2022-12-07T10:39:48;10.30;99.90
21149;DHT22;10732;51.472;6.466;2022-12-07T10:42:19;10.00;99.90
21149;DHT22;10732;51.472;6.466;2022-12-07T10:44:46;9.80;1.00
21149;DHT22;10732;51.472;6.466;2022-12-07T11:01:24;11.50;1.00
21149;DHT22;10732;51.472;6.466;2022-12-07T11:06:32;10.50;1.00
21149;DHT22;10732;51.472;6.466;2022-12-07T11:09:47;10.40;1.00
21149;DHT22;10732;51.472;6.466;2022-12-07T11:12:53;10.20;52.40
21149;DHT22;10732;51.472;6.466;2022-12-07T11:15:30;9.90;1.00
21149;DHT22;10732;51.472;6.466;2022-12-07T11:18:11;9.60;1.00
21149;DHT22;10732;51.472;6.466;2022-12-07T11:26:29;9.10;99.90
21149;DHT22;10732;51.472;6.466;2022-12-07T11:29:21;8.40;1.00
21149;DHT22;10732;51.472;6.466;2022-12-07T11:32:19;8.30;1.00
21149;DHT22;10732;51.472;6.466;2022-12-07T11:37:23;8.50;1.00
21149;DHT22;10732;51.472;6.466;2022-12-07T11:39:52;8.40;1.00
21149;DHT22;10732;51.472;6.466;2022-12-07T11:42:24;8.50;1.00
21149;DHT22;10732;51.472;6.466;2022-12-07T11:44:59;8.40;1.00
21149;DHT22;10732;51.472;6.466;2022-12-07T11:47:43;8.30;1.00
21149;DHT22;10732;51.472;6.466;2022-12-07T12:03:47;7.40;80.80
21149;DHT22;10732;51.472;6.466;2022-12-07T12:06:13;7.30;88.40
21149;DHT22;10732;51.472;6.466;2022-12-07T12:08:51;7.10;99.90
21149;DHT22;10732;51.472;6.466;2022-12-07T12:19:55;7.00;99.90
21149;DHT22;10732;51.472;6.466;2022-12-07T12:22:28;7.00;99.90
21149;DHT22;10732;51.472;6.466;2022-12-07T12:24:57;7.10;99.90
21149;DHT22;10732;51.472;6.466;2022-12-07T12:27:29;7.20;99.90
21149;DHT22;10732;51.472;6.466;2022-12-07T12:29:59;7.30;99.90
21149;DHT22;10732;51.472;6.466;2022-12-07T12:32:41;7.30;99.90
21149;DHT22;10732;51.472;6.466;2022-12-07T12:37:46;7.40;99.90
21149;DHT22;10732;51.472;6.466;2022-12-07T12:42:58;7.30;99.90
21149;DHT22;10732;51.472;6.466;2022-12-07T12:45:33;7.30;99.90
21149;DHT22;10732;51.472;6.466;2022-12-07T12:48:29;7.20;99.90
21149;DHT22;10732;51.472;6.466;2022-12-07T12:51:38;7.20;99.90
21149;DHT22;10732;51.472;6.466;2022-12-07T12:54:08;7.20;99.90
21149;DHT22;10732;51.472;6.466;2022-12-07T12:56:53;7.20;99.90
21149;DHT22;10732;51.472;6.466;2022-12-07T13:01:47;7.30;99.90
21149;DHT22;10732;51.472;6.466;2022-12-07T13:04:18;7.30;99.90
21149;DHT22;10732;51.472;6.466;2022-12-07T13:06:47;7.30;95.60
21149;DHT22;10732;51.472;6.466;2022-12-07T13:09:25;7.40;1.00
21149;DHT22;10732;51.472;6.466;2022-12-07T13:12:15;7.50;1.00
21149;DHT22;10732;51.472;6.466;2022-12-07T13:15:30;7.40;1.00
21149;DHT22;10732;51.472;6.466;2022-12-07T13:17:58;7.20;5.60
21149;DHT22;10732;51.472;6.466;2022-12-07T13:20:49;7.20;1.00
21149;DHT22;10732;51.472;6.466;2022-12-07T13:23:21;7.30;1.00
21149;DHT22;10732;51.472;6.466;2022-12-07T13:26:00;7.20;1.00
21149;DHT22;10732;51.472;6.466;2022-12-07T13:28:33;7.20;57.10
21149;DHT22;10732;51.472;6.466;2022-12-07T13:33:39;7.20;69.40
21149;DHT22;10732;51.472;6.466;2022-12-07T13:36:24;7.20;99.90
21149;DHT22;10732;51.472;6.466;2022-12-07T13:41:20;7.00;62.90
21149;DHT22;10732;51.472;6.466;2022-12-07T13:43:58;7.00;99.90
21149;DHT22;10732;51.472;6.466;2022-12-07T13:46:41;7.00;99.90
21149;DHT22;10732;51.472;6.466;2022-12-07T13:49:38;6.80;99.90
21149;DHT22;10732;51.472;6.466;2022-12-07T13:52:15;6.80;99.90
21149;DHT22;10732;51.472;6.466;2022-12-07T13:54:54;6.80;99.90
21149;DHT22;10732;51.472;6.466;2022-12-07T13:57:21;6.70;99.90
21149;DHT22;10732;51.472;6.466;2022-12-07T13:59:47;6.60;99.90
21149;DHT22;10732;51.472;6.466;2022-12-07T14:02:27;6.70;99.90
21149;DHT22;10732;51.472;6.466;2022-12-07T14:05:07;6.60;99.90
21149;DHT22;10732;51.472;6.466;2022-12-07T14:07:34;6.60;99.90
21149;DHT22;10732;51.472;6.466;2022-12-07T14:10:03;6.50;99.90
21149;DHT22;10732;51.472;6.466;2022-12-07T14:12:30;6.40;99.90
21149;DHT22;10732;51.472;6.466;2022-12-07T14:14:57;6.40;99.90
21149;DHT22;10732;51.472;6.466;2022-12-07T14:17:25;6.20;99.90
21149;DHT22;10732;51.472;6.466;2022-12-07T14:19:57;6.20;99.90
21149;DHT22;10732;51.472;6.466;2022-12-07T14:22:33;6.10;99.90
21149;DHT22;10732;51.472;6.466;2022-12-07T14:27:39;6.10;99.90
21149;DHT22;10732;51.472;6.466;2022-12-07T14:30:06;6.10;99.90
21149;DHT22;10732;51.472;6.466;2022-12-07T14:32:34;6.10;99.90
21149;DHT22;10732;51.472;6.466;2022-12-07T14:35:11;6.10;99.90
21149;DHT22;10732;51.472;6.466;2022-12-07T14:37:39;5.90;99.90
21149;DHT22;10732;51.472;6.466;2022-12-07T14:40:05;5.80;99.90
21149;DHT22;10732;51.472;6.466;2022-12-07T14:42:33;5.70;99.90
21149;DHT22;10732;51.472;6.466;2022-12-07T14:44:59;5.60;99.90
21149;DHT22;10732;51.472;6.466;2022-12-07T14:47:25;5.60;99.90
21149;DHT22;10732;51.472;6.466;2022-12-07T14:49:51;5.50;99.90
21149;DHT22;10732;51.472;6.466;2022-12-07T14:52:26;5.40;99.90
21149;DHT22;10732;51.472;6.466;2022-12-07T14:54:52;5.30;99.90
21149;DHT22;10732;51.472;6.466;2022-12-07T14:57:18;5.20;99.90
21149;DHT22;10732;51.472;6.466;2022-12-07T14:59:43;5.10;99.90
21149;DHT22;10732;51.472;6.466;2022-12-07T15:02:11;5.00;99.90
21149;DHT22;10732;51.472;6.466;2022-12-07T15:04:37;5.00;99.90
21149;DHT22;10732;51.472;6.466;2022-12-07T15:07:04;4.90;99.90
21149;DHT22;10732;51.472;6.466;2022-12-07T15:09:30;4.80;99.90
21149;DHT22;10732;51.472;6.466;2022-12-07T15:11:56;4.80;99.90
21149;DHT22;10732;51.472;6.466;2022-12-07T15:14:21;4.70;99.90
21149;DHT22;10732;51.472;6.466;2022-12-07T15:16:47;4.70;99.90
21149;DHT22;10732;51.472;6.466;2022-12-07T15:19:20;4.70;99.90
21149;DHT22;10732;51.472;6.466;2022-12-07T15:21:48;4.70;99.90
21149;DHT22;10732;51.472;6.466;2022-12-07T15:24:14;4.70;99.90
21149;DHT22;10732;51.472;6.466;2022-12-07T15:26:40;4.70;99.90
21149;DHT22;10732;51.472;6.466;2022-12-07T15:29:06;4.70;99.90
21149;DHT22;10732;51.472;6.466;2022-12-07T15:31:32;4.60;99.90
21149;DHT22;10732;51.472;6.466;2022-12-07T15:33:58;4.60;99.90
21149;DHT22;10732;51.472;6.466;2022-12-07T15:36:26;4.70;99.90
21149;DHT22;10732;51.472;6.466;2022-12-07T15:38:52;4.70;99.90
21149;DHT22;10732;51.472;6.466;2022-12-07T15:41:18;4.70;99.90
21149;DHT22;10732;51.472;6.466;2022-12-07T15:43:44;4.80;99.90
21149;DHT22;10732;51.472;6.466;2022-12-07T15:46:37;4.80;99.90
21149;DHT22;10732;51.472;6.466;2022-12-07T15:49:04;4.80;99.90
21149;DHT22;10732;51.472;6.466;2022-12-07T15:51:31;4.90;99.90
21149;DHT22;10732;51.472;6.466;2022-12-07T15:53:57;4.90;99.90
21149;DHT22;10732;51.472;6.466;2022-12-07T15:56:23;4.90;99.90
21149;DHT22;10732;51.472;6.466;2022-12-07T15:58:48;4.90;99.90
21149;DHT22;10732;51.472;6.466;2022-12-07T16:01:16;4.90;99.90
21149;DHT22;10732;51.472;6.466;2022-12-07T16:03:42;4.90;99.90
21149;DHT22;10732;51.472;6.466;2022-12-07T16:06:08;4.90;99.90
21149;DHT22;10732;51.472;6.466;2022-12-07T16:08:34;5.00;99.90
21149;DHT22;10732;51.472;6.466;2022-12-07T16:11:03;5.00;99.90
21149;DHT22;10732;51.472;6.466;2022-12-07T16:13:29;4.90;99.90
21149;DHT22;10732;51.472;6.466;2022-12-07T16:15:54;4.90;99.90
21149;DHT22;10732;51.472;6.466;2022-12-07T16:18:20;5.00;99.90
21149;DHT22;10732;51.472;6.466;2022-12-07T16:20:48;5.00;99.90
21149;DHT22;10732;51.472;6.466;2022-12-07T16:23:14;5.10;99.90
21149;DHT22;10732;51.472;6.466;2022-12-07T16:25:40;5.10;99.90
21149;DHT22;10732;51.472;6.466;2022-12-07T16:28:06;5.10;99.90
21149;DHT22;10732;51.472;6.466;2022-12-07T16:30:31;5.10;99.90
21149;DHT22;10732;51.472;6.466;2022-12-07T16:32:57;5.10;99.90
21149;DHT22;10732;51.472;6.466;2022-12-07T16:35:22;5.10;99.90
21149;DHT22;10732;51.472;6.466;2022-12-07T16:37:48;5.00;99.90
21149;DHT22;10732;51.472;6.466;2022-12-07T16:40:14;5.00;99.90
21149;DHT22;10732;51.472;6.466;2022-12-07T16:42:39;5.00;99.90
21149;DHT22;10732;51.472;6.466;2022-12-07T16:45:05;4.90;99.90
21149;DHT22;10732;51.472;6.466;2022-12-07T16:47:31;4.80;99.90
21149;DHT22;10732;51.472;6.466;2022-12-07T16:49:56;4.90;99.90
21149;DHT22;10732;51.472;6.466;2022-12-07T16:52:22;4.80;99.90
21149;DHT22;10732;51.472;6.466;2022-12-07T16:54:48;4.80;99.90
21149;DHT22;10732;51.472;6.466;2022-12-07T16:57:14;4.70;99.90
21149;DHT22;10732;51.472;6.466;2022-12-07T16:59:40;4.70;99.90
21149;DHT22;10732;51.472;6.466;2022-12-07T17:02:05;4.60;99.90
21149;DHT22;10732;51.472;6.466;2022-12-07T17:04:33;4.50;99.90
21149;DHT22;10732;51.472;6.466;2022-12-07T17:06:58;4.50;99.90
21149;DHT22;10732;51.472;6.466;2022-12-07T17:09:24;4.50;99.90
21149;DHT22;10732;51.472;6.466;2022-12-07T17:11:50;4.50;99.90
21149;DHT22;10732;51.472;6.466;2022-12-07T17:14:16;4.50;99.90
21149;DHT22;10732;51.472;6.466;2022-12-07T17:17:01;4.50;99.90
21149;DHT22;10732;51.472;6.466;2022-12-07T17:19:26;4.50;99.90
21149;DHT22;10732;51.472;6.466;2022-12-07T17:21:52;4.50;99.90
21149;DHT22;10732;51.472;6.466;2022-12-07T17:24:17;4.40;99.90
21149;DHT22;10732;51.472;6.466;2022-12-07T17:26:44;4.40;99.90
21149;DHT22;10732;51.472;6.466;2022-12-07T17:29:12;4.40;99.90
21149;DHT22;10732;51.472;6.466;2022-12-07T17:31:38;4.40;99.90
21149;DHT22;10732;51.472;6.466;2022-12-07T17:34:03;4.40;99.90
21149;DHT22;10732;51.472;6.466;2022-12-07T17:36:30;4.30;99.90
21149;DHT22;10732;51.472;6.466;2022-12-07T17:38:57;4.30;99.90
21149;DHT22;10732;51.472;6.466;2022-12-07T17:41:25;4.40;99.90
21149;DHT22;10732;51.472;6.466;2022-12-07T17:44:13;4.40;99.90